createdAt,value
2023-04-26T00:01:09.890Z,5.00
2023-04-26T00:06:14.779Z,3.63
2023-04-26T00:11:19.456Z,4.10
2023-04-26T00:16:22.778Z,5.78
2023-04-26T00:21:26.823Z,5.93
2023-04-26T00:26:31.475Z,5.40
2023-04-26T00:31:35.360Z,6.77
2023-04-26T00:36:38.685Z,6.13
2023-04-26T00:41:43.368Z,5.50
2023-04-26T00:46:47.495Z,5.75
2023-04-26T00:51:52.779Z,4.60
2023-04-26T00:56:57.516Z,4.85
2023-04-26T01:02:00.946Z,5.17
2023-04-26T01:07:04.451Z,4.23
2023-04-26T01:12:12.485Z,5.50
2023-04-26T01:17:15.828Z,5.65
2023-04-26T01:22:19.752Z,5.30
2023-04-26T01:27:24.564Z,4.00
2023-04-26T01:32:28.105Z,6.63
2023-04-26T01:37:34.614Z,6.65
2023-04-26T01:42:39.307Z,5.55
2023-04-26T01:47:42.611Z,5.88
2023-04-26T01:52:46.028Z,5.47
2023-04-26T01:57:50.716Z,4.88
2023-04-26T02:02:56.669Z,5.60
2023-04-26T02:08:00.057Z,5.00
2023-04-26T02:13:04.714Z,6.22
2023-04-26T02:18:09.697Z,6.18
2023-04-26T02:23:13.425Z,5.93
2023-04-26T02:28:21.076Z,6.72
2023-04-26T02:33:24.487Z,8.50
2023-04-26T02:38:28.419Z,6.32
2023-04-26T02:43:35.376Z,5.00
2023-04-26T02:48:38.656Z,5.77
2023-04-26T02:53:41.988Z,5.90
2023-04-26T02:58:47.228Z,5.75
2023-04-26T03:03:51.113Z,6.47
2023-04-26T03:08:54.567Z,6.25
2023-04-26T03:13:59.468Z,6.18
2023-04-26T03:19:03.013Z,6.47
2023-04-26T03:24:07.289Z,6.67
2023-04-26T03:29:12.540Z,6.83
2023-04-26T03:34:16.137Z,5.70
2023-04-26T03:39:19.919Z,5.93
2023-04-26T03:44:25.042Z,7.20
2023-04-26T03:49:28.341Z,6.07
2023-04-26T03:54:32.211Z,4.97
2023-04-26T03:59:37.121Z,8.13
2023-04-26T04:04:41.632Z,6.68
2023-04-26T04:09:45.774Z,6.30
2023-04-26T04:14:51.142Z,5.95
2023-04-26T04:19:55.147Z,5.70
2023-04-26T04:24:59.846Z,6.60
2023-04-26T04:30:04.855Z,6.15
2023-04-26T04:35:09.330Z,5.70
2023-04-26T04:40:13.601Z,7.23
2023-04-26T04:45:21.701Z,7.93
2023-04-26T04:50:26.703Z,6.18
2023-04-26T04:55:30.525Z,6.33
2023-04-26T05:00:38.048Z,5.43
2023-04-26T05:05:52.168Z,5.63
2023-04-26T05:10:56.983Z,6.15
2023-04-26T05:16:01.973Z,6.00
2023-04-26T05:21:06.724Z,8.00
2023-04-26T05:26:14.273Z,6.15
2023-04-26T05:31:39.244Z,5.25
2023-04-26T05:37:18.384Z,8.15
2023-04-26T05:42:21.764Z,6.63
2023-04-26T05:47:27.144Z,5.23
2023-04-26T05:52:31.171Z,5.50
2023-04-26T05:57:34.791Z,4.72
2023-04-26T06:02:39.840Z,8.27
2023-04-26T06:07:47.330Z,4.97
2023-04-26T06:12:50.702Z,6.75
2023-04-26T06:17:56.642Z,5.43
2023-04-26T06:23:00.108Z,5.83
2023-04-26T06:28:03.886Z,5.10
2023-04-26T06:33:09.006Z,4.40
2023-04-26T06:38:13.738Z,4.97
2023-04-26T06:43:17.445Z,4.32
2023-04-26T06:48:37.792Z,5.57
2023-04-26T06:53:41.628Z,3.67
2023-04-26T06:59:00.892Z,4.97
2023-04-26T07:04:10.110Z,4.47
2023-04-26T07:09:14.116Z,4.85
2023-04-26T07:14:17.623Z,4.43
2023-04-26T07:19:22.304Z,3.58
2023-04-26T07:24:26.013Z,3.35
2023-04-26T07:29:29.311Z,3.57
2023-04-26T07:34:34.111Z,2.70
2023-04-26T07:39:37.349Z,3.20
2023-04-26T07:44:40.738Z,3.60
2023-04-26T07:49:47.529Z,5.65
2023-04-26T07:54:51.886Z,6.33
2023-04-26T07:59:55.301Z,3.67
2023-04-26T08:05:00.424Z,4.65
2023-04-26T08:10:04.067Z,3.33
2023-04-26T08:15:08.421Z,2.78
2023-04-26T08:20:14.317Z,3.67
2023-04-26T08:25:17.554Z,3.15
2023-04-26T08:40:28.388Z,2.10
2023-04-26T08:45:34.082Z,5.25
2023-04-26T08:50:41.864Z,4.18
2023-04-26T08:55:49.346Z,3.70
2023-04-26T09:00:53.132Z,2.67
2023-04-26T09:05:58.431Z,4.20
2023-04-26T09:11:01.790Z,2.20
2023-04-26T09:16:05.404Z,2.77
2023-04-26T09:21:10.454Z,3.05
2023-04-26T09:26:21.067Z,4.70
2023-04-26T09:31:43.284Z,4.20
2023-04-26T09:36:56.169Z,4.00
2023-04-26T09:41:59.630Z,4.28
2023-04-26T09:47:05.145Z,7.43
2023-04-26T09:52:09.835Z,5.18
2023-04-26T09:57:13.243Z,2.97
2023-04-26T10:02:19.081Z,3.67
2023-04-26T10:07:25.887Z,1.92
2023-04-26T10:12:29.863Z,3.90
2023-04-26T10:17:33.509Z,3.03
2023-04-26T10:22:45.018Z,3.40
2023-04-26T10:27:53.199Z,3.45
2023-04-26T10:33:23.978Z,3.40
2023-04-26T10:38:28.994Z,3.05
2023-04-26T10:43:32.930Z,3.70
2023-04-26T10:48:36.340Z,2.80
2023-04-26T10:59:33.388Z,3.03
2023-04-26T11:04:54.920Z,6.78
2023-04-26T11:10:01.431Z,2.78
2023-04-26T11:15:07.316Z,2.55
2023-04-26T11:20:17.271Z,2.60
2023-04-26T11:25:20.734Z,2.80
2023-04-26T11:30:25.589Z,3.50
2023-04-26T11:35:32.002Z,3.72
2023-04-26T11:40:36.716Z,2.78
2023-04-26T11:45:41.487Z,5.57
2023-04-26T11:50:45.190Z,3.88
2023-04-26T11:55:48.473Z,2.88
2023-04-26T12:01:00.506Z,3.03
2023-04-26T12:06:04.029Z,3.50
2023-04-26T12:11:07.295Z,3.57
2023-04-26T12:16:25.663Z,2.42
2023-04-26T12:21:30.904Z,3.30
2023-04-26T12:26:44.890Z,2.30
2023-04-26T12:36:53.137Z,3.70
2023-04-26T12:41:56.525Z,4.03
2023-04-26T12:47:01.215Z,2.67
2023-04-26T12:52:04.688Z,3.97
2023-04-26T12:57:08.036Z,2.67
2023-04-26T13:02:12.744Z,3.13
2023-04-26T13:07:16.244Z,4.17
2023-04-26T13:12:19.696Z,3.30
2023-04-26T13:17:25.939Z,2.60
2023-04-26T13:22:29.500Z,3.43
2023-04-26T13:27:32.801Z,3.00
2023-04-26T13:32:37.712Z,4.28
2023-04-26T13:37:41.672Z,3.60
2023-04-26T13:42:44.879Z,3.17
2023-04-26T13:47:49.615Z,2.40
2023-04-26T13:52:53.173Z,2.47
2023-04-26T13:57:56.638Z,3.45
2023-04-26T14:03:01.485Z,2.40
2023-04-26T14:08:04.950Z,3.13
2023-04-26T14:13:08.346Z,3.13
2023-04-26T14:18:13.142Z,4.20
2023-04-26T14:23:16.972Z,3.53
2023-04-26T14:28:20.424Z,3.27
2023-04-26T14:33:25.242Z,5.63
2023-04-26T14:38:28.568Z,3.50
2023-04-26T14:43:32.020Z,5.10
2023-04-26T14:48:36.730Z,2.93
2023-04-26T14:53:40.244Z,3.63
2023-04-26T14:58:43.616Z,3.30
2023-04-26T15:03:48.756Z,2.90
2023-04-26T15:08:52.189Z,3.10
2023-04-26T15:13:55.456Z,2.27
2023-04-26T15:19:00.214Z,3.00
2023-04-26T15:24:03.454Z,2.90
2023-04-26T15:29:06.748Z,4.70
2023-04-26T15:34:11.395Z,2.35
2023-04-26T15:39:14.907Z,4.55
2023-04-26T15:44:18.226Z,3.08
2023-04-26T15:49:24.745Z,3.00
2023-04-26T15:54:28.098Z,3.60
2023-04-26T15:59:33.396Z,3.67
2023-04-26T16:04:38.563Z,4.80
2023-04-26T16:09:42.426Z,3.23
2023-04-26T16:14:45.864Z,3.93
2023-04-26T16:19:50.762Z,4.00
2023-04-26T16:24:55.374Z,4.00
2023-04-26T16:30:00.416Z,3.30
2023-04-26T16:35:06.530Z,3.20
2023-04-26T16:40:11.716Z,2.63
2023-04-26T16:45:16.600Z,6.03
2023-04-26T16:50:21.511Z,3.25
2023-04-26T16:55:25.369Z,2.50
2023-04-26T17:00:29.189Z,2.70
2023-04-26T17:05:38.649Z,3.40
2023-04-26T17:10:42.435Z,3.33
2023-04-26T17:15:46.247Z,3.72
2023-04-26T17:20:53.751Z,3.15
2023-04-26T17:25:57.016Z,3.45
2023-04-26T17:31:00.714Z,6.10
2023-04-26T17:36:06.451Z,6.03
2023-04-26T17:41:09.753Z,6.85
2023-04-26T17:46:13.230Z,9.70
2023-04-26T17:51:18.453Z,8.35
2023-04-26T17:56:21.956Z,13.13
2023-04-26T18:01:25.298Z,5.38
2023-04-26T18:06:29.964Z,3.42
2023-04-26T18:11:33.262Z,3.20
2023-04-26T18:16:36.918Z,5.00
2023-04-26T18:21:41.657Z,4.82
2023-04-26T18:26:46.989Z,2.60
2023-04-26T18:31:52.592Z,4.30
2023-04-26T18:36:58.180Z,8.23
2023-04-26T18:42:02.010Z,11.48
2023-04-26T18:47:06.074Z,6.43
2023-04-26T18:52:12.036Z,8.02
2023-04-26T18:57:18.168Z,8.70
2023-04-26T19:02:21.712Z,9.77
2023-04-26T19:07:28.380Z,6.07
2023-04-26T19:12:33.063Z,3.92
2023-04-26T19:17:36.726Z,4.78
2023-04-26T19:22:44.675Z,8.32
2023-04-26T19:27:48.154Z,10.20
2023-04-26T19:32:52.713Z,8.13
2023-04-26T19:37:58.691Z,8.15
2023-04-26T19:43:03.129Z,11.07
2023-04-26T19:48:06.863Z,5.27
2023-04-26T19:53:13.171Z,3.85
2023-04-26T19:58:17.053Z,5.80
2023-04-26T20:03:20.526Z,5.40
2023-04-26T20:08:25.329Z,5.93
2023-04-26T20:13:29.098Z,5.40
2023-04-26T20:18:33.541Z,4.72
2023-04-26T20:23:38.780Z,5.18
2023-04-26T20:28:43.297Z,4.90
2023-04-26T20:33:47.587Z,5.97
2023-04-26T20:38:53.766Z,5.50
2023-04-26T20:43:57.349Z,6.72
2023-04-26T20:49:00.898Z,5.93
2023-04-26T20:54:06.887Z,4.97
2023-04-26T20:59:11.896Z,4.10
2023-04-26T21:04:16.699Z,4.67
2023-04-26T21:09:22.160Z,6.50
2023-04-26T21:14:25.803Z,5.38
2023-04-26T21:19:29.337Z,5.05
2023-04-26T21:24:34.560Z,6.05
2023-04-26T21:29:38.807Z,6.50
2023-04-26T21:34:42.229Z,6.53
2023-04-26T21:39:46.966Z,6.13
2023-04-26T21:44:50.340Z,5.40
2023-04-26T21:49:53.734Z,5.63
2023-04-26T21:54:58.397Z,7.97
2023-04-26T22:00:01.805Z,9.53
2023-04-26T22:05:05.507Z,5.50
2023-04-26T22:10:11.815Z,11.63
2023-04-26T22:15:15.375Z,6.30
2023-04-26T22:20:18.840Z,7.82
2023-04-26T22:25:24.453Z,5.00
2023-04-26T22:30:27.850Z,5.35
2023-04-26T22:35:31.213Z,7.18
2023-04-26T22:40:36.428Z,6.18
2023-04-26T22:45:39.806Z,5.00
2023-04-26T22:50:43.252Z,6.40
2023-04-26T22:55:48.012Z,7.47
2023-04-26T23:00:51.340Z,7.53
2023-04-26T23:05:54.845Z,4.38
2023-04-26T23:10:59.564Z,6.13
2023-04-26T23:16:04.373Z,5.73
2023-04-26T23:21:07.864Z,4.22
2023-04-26T23:26:12.565Z,5.40
2023-04-26T23:31:16.033Z,7.18
2023-04-26T23:36:19.370Z,4.25
2023-04-26T23:41:24.106Z,4.50
2023-04-26T23:46:27.480Z,3.95
2023-04-26T23:51:32.500Z,4.15
2023-04-26T23:56:37.418Z,3.30
